Time;durP1;ratioP1;P1;durP2;ratioP2;P2;SDS_P1;SDS_P2;PMS_P1;PMS_P2;Temp;Humidity;BMP_temperature;BMP_pressure;BME280_temperature;BME280_humidity;BME280_pressure;Samples;Min_cycle;Max_cycle;Signal;HPM_P1;HPM_P2
2023/06/28 00:00:04;;;;;;;9.32;2.83;;;15.30;99.90;;;;;;5032678;28;20048;-73
2023/06/28 00:02:35;;;;;;;8.93;3.13;;;15.40;99.90;;;;;;5015945;28;20490;-73
2023/06/28 00:05:03;;;;;;;9.75;2.65;;;15.30;99.90;;;;;;5032316;28;20056;-73
2023/06/28 00:07:28;;;;;;;7.80;2.55;;;15.30;99.90;;;;;;5015769;28;20045;-73
2023/06/28 00:09:54;;;;;;;8.85;3.10;;;15.30;99.90;;;;;;5032266;28;20087;-73
2023/06/28 00:12:21;;;;;;;10.00;3.08;;;15.30;99.90;;;;;;5032117;28;20063;-73
2023/06/28 00:14:46;;;;;;;9.95;3.03;;;15.30;99.90;;;;;;5032216;28;20084;-73
2023/06/28 00:17:12;;;;;;;9.30;2.80;;;15.30;99.90;;;;;;5032097;28;20073;-73
2023/06/28 00:19:47;;;;;;;10.10;3.20;;;15.30;99.90;;;;;;5032203;28;20053;-73
2023/06/28 00:22:16;;;;;;;9.45;3.65;;;15.20;99.90;;;;;;5015713;28;20115;-73
2023/06/28 00:24:42;;;;;;;8.48;2.70;;;15.20;99.90;;;;;;5032130;28;20042;-73
2023/06/28 00:27:11;;;;;;;10.43;3.05;;;15.20;99.90;;;;;;5032007;28;20091;-73
2023/06/28 00:29:37;;;;;;;9.25;2.85;;;15.20;99.90;;;;;;5032034;28;20120;-73
2023/06/28 00:32:03;;;;;;;9.35;3.40;;;15.10;99.90;;;;;;5031988;28;20124;-73
2023/06/28 00:34:28;;;;;;;7.95;2.80;;;15.20;99.90;;;;;;5015735;28;20128;-73
2023/06/28 00:36:54;;;;;;;8.88;3.47;;;15.20;99.90;;;;;;5031868;28;20470;-73
2023/06/28 00:39:20;;;;;;;7.85;2.90;;;15.20;99.90;;;;;;5031915;28;20115;-73
2023/06/28 00:41:45;;;;;;;8.98;2.90;;;15.20;99.90;;;;;;5032195;28;20049;-73
2023/06/28 00:44:11;;;;;;;7.30;3.03;;;15.20;99.90;;;;;;5031978;28;20040;-73
2023/06/28 00:46:36;;;;;;;6.88;2.65;;;15.10;99.90;;;;;;5031964;28;20486;-73
2023/06/28 00:49:03;;;;;;;7.47;3.17;;;15.10;99.90;;;;;;5031754;28;20064;-73
2023/06/28 00:51:31;;;;;;;11.23;3.40;;;15.10;99.90;;;;;;5031781;28;20080;-73
2023/06/28 00:53:57;;;;;;;12.18;3.40;;;15.10;99.90;;;;;;5031811;28;20045;-73
2023/06/28 00:56:24;;;;;;;5.82;3.22;;;15.10;99.90;;;;;;5031576;28;20056;-73
2023/06/28 00:58:50;;;;;;;11.75;3.42;;;15.10;99.90;;;;;;5031952;28;20091;-73
2023/06/28 01:01:17;;;;;;;8.93;3.40;;;15.10;99.90;;;;;;5031988;28;20099;-73
2023/06/28 01:03:43;;;;;;;6.68;2.90;;;15.10;99.90;;;;;;5031922;28;20044;-73
2023/06/28 01:06:12;;;;;;;10.95;3.55;;;15.10;99.90;;;;;;5031836;28;20046;-73
2023/06/28 01:08:40;;;;;;;9.18;3.50;;;15.10;99.90;;;;;;5031611;28;20042;-73
2023/06/28 01:11:07;;;;;;;10.07;3.80;;;15.00;99.90;;;;;;5031934;28;20072;-73
2023/06/28 01:13:35;;;;;;;10.50;3.85;;;15.00;99.90;;;;;;5031561;28;20512;-73
2023/06/28 01:16:01;;;;;;;7.10;3.53;;;15.00;99.90;;;;;;5015056;28;20069;-73
2023/06/28 01:18:27;;;;;;;12.45;3.92;;;15.00;99.90;;;;;;5031544;28;20520;-73
2023/06/28 01:20:54;;;;;;;7.80;3.40;;;15.00;99.90;;;;;;5031490;28;20124;-73
2023/06/28 01:23:25;;;;;;;9.75;3.47;;;15.00;99.90;;;;;;5032994;28;20049;-73
2023/06/28 01:25:51;;;;;;;12.20;4.20;;;15.00;99.90;;;;;;5035318;28;20103;-73
2023/06/28 01:28:19;;;;;;;7.95;3.45;;;14.90;99.90;;;;;;5035329;28;20120;-73
2023/06/28 01:30:48;;;;;;;9.20;4.00;;;14.90;99.90;;;;;;5035241;28;20037;-73
2023/06/28 01:33:15;;;;;;;13.60;4.47;;;14.90;99.90;;;;;;5035184;28;20057;-73
2023/06/28 01:35:41;;;;;;;14.20;3.90;;;14.80;99.90;;;;;;5035043;28;20045;-73
2023/06/28 01:38:09;;;;;;;5.65;2.92;;;14.80;99.90;;;;;;5035098;28;20095;-73
2023/06/28 01:40:36;;;;;;;7.65;3.05;;;14.80;99.90;;;;;;5035018;28;20038;-73
2023/06/28 01:43:06;;;;;;;9.70;3.63;;;14.80;99.90;;;;;;5034996;28;20052;-73
2023/06/28 01:45:32;;;;;;;10.80;3.40;;;14.80;99.90;;;;;;5018469;28;20159;-73
2023/06/28 01:47:58;;;;;;;10.93;3.83;;;14.80;99.90;;;;;;5035201;28;20056;-73
2023/06/28 01:50:23;;;;;;;9.70;3.58;;;14.70;99.90;;;;;;5035169;28;20041;-73
2023/06/28 01:52:49;;;;;;;10.38;3.88;;;14.70;99.90;;;;;;5034834;28;20502;-73
2023/06/28 01:55:15;;;;;;;8.15;3.83;;;14.70;99.90;;;;;;5034683;28;20041;-73
2023/06/28 01:57:40;;;;;;;9.45;3.80;;;14.70;99.90;;;;;;5034967;28;20099;-73
2023/06/28 02:00:08;;;;;;;10.77;4.20;;;14.60;99.90;;;;;;5034697;28;20520;-73
2023/06/28 02:02:35;;;;;;;12.25;4.05;;;14.60;99.90;;;;;;5034656;28;20103;-73
2023/06/28 02:05:01;;;;;;;12.68;3.92;;;14.60;99.90;;;;;;5034546;28;20045;-73
2023/06/28 02:07:26;;;;;;;10.40;4.38;;;14.60;99.90;;;;;;5034496;28;20122;-73
2023/06/28 02:09:52;;;;;;;10.55;4.18;;;14.60;99.90;;;;;;5034463;28;20048;-73
2023/06/28 02:12:17;;;;;;;11.02;4.55;;;14.50;99.90;;;;;;5034463;28;20044;-73
2023/06/28 02:14:43;;;;;;;11.77;4.07;;;14.60;99.90;;;;;;5034386;28;20053;-73
2023/06/28 02:17:13;;;;;;;11.40;4.57;;;14.60;99.90;;;;;;5034515;28;20042;-73
2023/06/28 02:19:40;;;;;;;9.30;4.05;;;14.60;99.90;;;;;;5018194;28;20041;-73
2023/06/28 02:22:05;;;;;;;6.63;3.78;;;14.60;99.90;;;;;;5034307;28;20509;-73
2023/06/28 02:24:31;;;;;;;9.00;4.30;;;14.70;99.90;;;;;;5034186;28;20037;-73
2023/06/28 02:26:56;;;;;;;8.73;3.83;;;14.70;99.90;;;;;;5034436;28;20059;-73
2023/06/28 02:29:22;;;;;;;10.00;4.18;;;14.70;99.90;;;;;;5034182;28;20510;-73
2023/06/28 02:31:48;;;;;;;10.25;4.47;;;14.70;99.90;;;;;;5034362;28;20037;-73
2023/06/28 02:34:14;;;;;;;12.40;4.40;;;14.70;99.90;;;;;;5033159;28;20050;-73
2023/06/28 02:36:39;;;;;;;11.75;4.60;;;14.70;99.90;;;;;;5033787;28;20045;-73
2023/06/28 02:39:05;;;;;;;9.32;4.88;;;14.80;99.90;;;;;;5034230;28;20049;-73
2023/06/28 02:41:31;;;;;;;8.25;4.65;;;14.80;99.90;;;;;;5033882;28;20417;-73
2023/06/28 02:43:56;;;;;;;10.98;4.47;;;14.70;99.90;;;;;;5033825;28;20033;-73
2023/06/28 02:46:22;;;;;;;11.10;4.97;;;14.70;99.90;;;;;;5033801;28;20080;-73
2023/06/28 02:48:47;;;;;;;9.68;4.97;;;14.70;99.90;;;;;;5034063;28;20088;-73
2023/06/28 02:51:13;;;;;;;12.10;4.95;;;14.70;99.90;;;;;;5033766;28;20417;-73
2023/06/28 02:53:39;;;;;;;9.32;4.72;;;14.80;99.90;;;;;;5033716;28;20127;-73
2023/06/28 02:56:04;;;;;;;10.27;4.72;;;14.80;99.90;;;;;;5033489;28;20046;-73
2023/06/28 02:58:30;;;;;;;9.98;4.60;;;14.90;99.90;;;;;;5017161;28;20217;-73
2023/06/28 03:00:57;;;;;;;10.27;4.75;;;14.90;99.90;;;;;;5033602;28;20037;-73
2023/06/28 03:03:23;;;;;;;8.93;4.70;;;14.90;99.90;;;;;;5033794;28;20554;-73
2023/06/28 03:05:49;;;;;;;7.55;4.85;;;14.90;99.90;;;;;;5017173;28;20080;-73
2023/06/28 03:08:14;;;;;;;11.90;4.55;;;14.90;99.90;;;;;;5033711;28;20076;-73
2023/06/28 03:10:40;;;;;;;8.40;4.70;;;15.00;99.90;;;;;;5033602;28;20631;-73
2023/06/28 03:13:06;;;;;;;10.45;4.40;;;15.00;99.90;;;;;;5033356;28;20033;-73
2023/06/28 03:15:34;;;;;;;7.50;4.25;;;15.00;99.90;;;;;;5033244;28;20034;-73
2023/06/28 03:18:00;;;;;;;11.10;4.53;;;15.00;99.90;;;;;;5033485;28;20045;-73
2023/06/28 03:20:27;;;;;;;8.23;4.22;;;15.00;99.90;;;;;;5033207;28;20561;-73
2023/06/28 03:22:53;;;;;;;10.75;4.70;;;15.00;99.90;;;;;;5016631;28;20512;-73
2023/06/28 03:25:19;;;;;;;8.50;3.80;;;15.00;99.90;;;;;;5032985;28;20041;-73
2023/06/28 03:27:45;;;;;;;9.27;4.22;;;15.00;99.90;;;;;;5032978;28;20042;-73
2023/06/28 03:30:10;;;;;;;7.55;4.00;;;15.00;99.90;;;;;;5032986;28;20045;-73
2023/06/28 03:32:37;;;;;;;7.80;3.67;;;15.00;99.90;;;;;;5032935;28;20037;-73
2023/06/28 03:35:03;;;;;;;8.93;4.00;;;15.00;99.90;;;;;;5032900;28;20047;-73
2023/06/28 03:37:29;;;;;;;8.40;3.88;;;15.00;99.90;;;;;;5033142;28;20132;-73
2023/06/28 03:39:54;;;;;;;10.30;4.00;;;15.10;99.90;;;;;;5032802;28;20494;-73
2023/06/28 03:42:20;;;;;;;12.80;4.25;;;15.10;99.90;;;;;;5032732;28;20103;-73
2023/06/28 03:44:45;;;;;;;7.15;4.07;;;15.10;99.90;;;;;;5032632;28;20042;-73
2023/06/28 03:47:11;;;;;;;11.70;3.97;;;15.10;99.90;;;;;;5032190;28;20037;-73
2023/06/28 03:49:36;;;;;;;9.93;3.90;;;15.10;99.90;;;;;;5032632;28;20045;-73
2023/06/28 03:52:02;;;;;;;10.68;4.32;;;15.10;99.90;;;;;;5032878;28;20080;-73
2023/06/28 03:54:28;;;;;;;7.40;4.13;;;15.20;99.90;;;;;;5032483;28;20456;-73
2023/06/28 03:56:53;;;;;;;10.02;3.65;;;15.20;99.90;;;;;;5032368;28;20102;-73
2023/06/28 03:59:19;;;;;;;11.55;3.97;;;15.20;99.90;;;;;;5032392;28;20041;-73
2023/06/28 04:01:44;;;;;;;10.70;4.85;;;15.20;99.90;;;;;;5032415;28;20052;-73
2023/06/28 04:04:10;;;;;;;11.43;4.13;;;15.20;99.90;;;;;;5032305;28;20103;-73
2023/06/28 04:06:36;;;;;;;8.55;4.60;;;15.20;99.90;;;;;;5032318;28;20037;-73
2023/06/28 04:09:01;;;;;;;10.88;3.80;;;15.20;99.90;;;;;;5032301;28;20191;-73
2023/06/28 04:11:27;;;;;;;8.43;3.80;;;15.20;99.90;;;;;;5032285;28;20056;-73
2023/06/28 04:13:53;;;;;;;10.93;4.63;;;15.20;99.90;;;;;;5032212;28;20080;-73
2023/06/28 04:16:19;;;;;;;7.95;4.18;;;15.30;99.90;;;;;;5032087;28;20042;-73
2023/06/28 04:18:44;;;;;;;8.40;4.30;;;15.30;99.90;;;;;;5032414;28;20047;-73
2023/06/28 04:21:10;;;;;;;8.35;4.15;;;15.30;99.90;;;;;;5032130;28;20556;-73
2023/06/28 04:23:35;;;;;;;10.27;4.47;;;15.30;99.90;;;;;;5032009;28;20045;-73
2023/06/28 04:26:02;;;;;;;8.15;4.50;;;15.20;99.90;;;;;;5015461;28;20065;-73
2023/06/28 04:28:28;;;;;;;8.95;4.40;;;15.30;99.90;;;;;;5032064;28;20050;-73
2023/06/28 04:30:53;;;;;;;7.38;4.43;;;15.30;99.90;;;;;;5031976;28;20041;-72
2023/06/28 04:33:22;;;;;;;6.78;4.28;;;15.30;99.90;;;;;;5032247;28;20099;-72
2023/06/28 04:35:50;;;;;;;11.07;4.72;;;15.30;99.90;;;;;;5031868;28;20045;-72
2023/06/28 04:38:15;;;;;;;8.30;4.40;;;15.40;99.90;;;;;;5031940;28;20064;-72
2023/06/28 04:40:41;;;;;;;8.80;4.38;;;15.30;99.90;;;;;;5031871;28;20094;-72
2023/06/28 04:43:10;;;;;;;11.30;4.50;;;15.40;99.90;;;;;;5031815;28;20121;-72
2023/06/28 04:45:37;;;;;;;10.07;4.97;;;15.40;99.90;;;;;;5031728;28;20045;-72
2023/06/28 04:48:07;;;;;;;10.98;5.00;;;15.30;99.90;;;;;;5031818;28;20505;-72
2023/06/28 04:50:33;;;;;;;8.35;4.68;;;15.40;99.90;;;;;;5031743;28;20083;-72
2023/06/28 04:52:59;;;;;;;7.50;4.60;;;15.40;99.90;;;;;;5031712;28;20064;-72
2023/06/28 04:55:25;;;;;;;10.48;4.72;;;15.40;99.90;;;;;;5031641;28;20083;-72
2023/06/28 04:57:51;;;;;;;11.57;4.60;;;15.30;99.90;;;;;;5032462;28;20132;-72
2023/06/28 05:00:17;;;;;;;9.45;4.70;;;15.40;99.90;;;;;;5035805;28;20045;-72
2023/06/28 05:02:43;;;;;;;8.68;4.80;;;15.40;99.90;;;;;;5035775;28;20045;-72
2023/06/28 05:05:09;;;;;;;10.43;4.70;;;15.50;99.90;;;;;;5035741;28;20050;-72
2023/06/28 05:07:35;;;;;;;8.48;4.47;;;15.40;99.90;;;;;;5036207;28;20080;-72
2023/06/28 05:10:01;;;;;;;11.43;5.28;;;15.50;99.90;;;;;;5035866;28;20112;-72
2023/06/28 05:12:26;;;;;;;10.27;4.95;;;15.50;99.90;;;;;;5035638;28;20509;-72
2023/06/28 05:14:52;;;;;;;8.52;4.35;;;15.60;99.90;;;;;;5035817;28;20052;-73
2023/06/28 05:17:17;;;;;;;9.00;4.50;;;15.60;99.90;;;;;;5035448;28;20541;-72
2023/06/28 05:19:43;;;;;;;9.02;5.03;;;15.60;99.90;;;;;;5035727;28;20037;-72
2023/06/28 05:22:08;;;;;;;8.20;4.10;;;15.60;99.90;;;;;;5035409;28;20041;-72
2023/06/28 05:24:34;;;;;;;6.70;4.10;;;15.60;99.90;;;;;;5035313;28;20073;-72
2023/06/28 05:26:59;;;;;;;7.80;4.40;;;15.60;99.90;;;;;;5035235;28;20045;-72
2023/06/28 05:29:25;;;;;;;7.43;4.20;;;15.60;99.90;;;;;;5035303;28;20192;-72
2023/06/28 05:31:51;;;;;;;7.93;3.60;;;15.70;99.90;;;;;;5035209;28;20037;-72
2023/06/28 05:34:17;;;;;;;7.43;4.20;;;15.60;99.90;;;;;;5035446;28;20060;-72
2023/06/28 05:36:42;;;;;;;7.57;3.38;;;15.60;99.90;;;;;;5035056;28;20391;-72
2023/06/28 05:39:09;;;;;;;8.30;3.78;;;15.70;99.90;;;;;;5035110;28;20100;-72
2023/06/28 05:41:35;;;;;;;7.72;3.58;;;15.80;99.90;;;;;;5035358;28;20383;-73
2023/06/28 05:44:00;;;;;;;9.50;3.45;;;15.80;99.90;;;;;;5035117;28;20051;-73
2023/06/28 05:46:26;;;;;;;7.55;3.70;;;15.70;99.90;;;;;;5034916;28;20490;-72
2023/06/28 05:48:53;;;;;;;6.88;3.42;;;15.70;99.90;;;;;;5034884;28;20077;-72
2023/06/28 05:51:18;;;;;;;7.70;3.97;;;15.80;99.90;;;;;;5034847;28;20044;-72
2023/06/28 05:53:44;;;;;;;7.07;3.58;;;15.70;99.90;;;;;;5034816;28;20128;-73
2023/06/28 05:56:09;;;;;;;8.18;3.63;;;15.70;99.90;;;;;;5034749;28;20037;-73
2023/06/28 05:58:35;;;;;;;8.68;3.50;;;15.80;99.90;;;;;;5034740;28;20045;-73
2023/06/28 06:01:01;;;;;;;8.02;3.80;;;15.80;99.90;;;;;;5034654;28;20049;-73
2023/06/28 06:03:26;;;;;;;9.15;4.20;;;15.90;99.90;;;;;;5035604;28;20053;-73
2023/06/28 06:05:56;;;;;;;8.90;4.20;;;15.90;99.90;;;;;;5035180;28;20474;-73
2023/06/28 06:08:21;;;;;;;11.15;4.95;;;16.00;99.90;;;;;;5034768;28;20045;-72
2023/06/28 06:10:47;;;;;;;9.75;4.40;;;16.00;99.90;;;;;;5034366;28;20045;-73
2023/06/28 06:13:12;;;;;;;9.52;4.43;;;16.00;99.90;;;;;;5034790;28;20037;-73
2023/06/28 06:15:38;;;;;;;7.70;4.65;;;16.10;99.90;;;;;;5034643;28;20550;-73
2023/06/28 06:18:04;;;;;;;10.07;4.10;;;16.20;99.90;;;;;;5034444;28;20045;-73
2023/06/28 06:20:31;;;;;;;8.13;4.68;;;16.20;99.90;;;;;;5034649;28;20134;-73
2023/06/28 06:22:57;;;;;;;11.38;4.57;;;16.30;99.90;;;;;;5034371;28;20510;-73
2023/06/28 06:25:22;;;;;;;7.43;3.88;;;16.40;99.90;;;;;;5034284;28;20051;-73
2023/06/28 06:27:48;;;;;;;9.07;4.25;;;16.40;99.90;;;;;;5034198;28;20044;-73
2023/06/28 06:30:14;;;;;;;10.30;4.07;;;16.40;99.90;;;;;;5034216;28;20042;-73
2023/06/28 06:32:39;;;;;;;8.75;3.80;;;16.50;99.90;;;;;;5034231;28;20076;-73
2023/06/28 06:35:06;;;;;;;9.18;4.25;;;16.50;99.90;;;;;;5034135;28;20042;-73
2023/06/28 06:37:32;;;;;;;8.48;4.47;;;16.50;99.90;;;;;;5034247;28;20056;-73
2023/06/28 06:39:58;;;;;;;12.30;4.60;;;16.60;99.90;;;;;;5034073;28;20406;-73
2023/06/28 06:42:23;;;;;;;9.00;4.53;;;16.60;99.90;;;;;;5034241;28;20191;-73
2023/06/28 06:44:49;;;;;;;7.88;4.10;;;16.60;99.90;;;;;;5033869;28;20515;-73
2023/06/28 06:47:14;;;;;;;10.35;4.80;;;16.50;99.90;;;;;;5034074;28;20126;-72
2023/06/28 06:49:40;;;;;;;10.00;4.93;;;16.50;99.90;;;;;;5033943;28;20509;-72
2023/06/28 06:52:06;;;;;;;10.88;4.97;;;16.60;99.90;;;;;;5033796;28;20041;-72
2023/06/28 06:54:31;;;;;;;8.02;4.72;;;16.60;99.90;;;;;;5033816;28;20048;-72
2023/06/28 06:57:02;;;;;;;9.95;4.47;;;16.60;99.90;;;;;;5033607;28;20048;-72
2023/06/28 06:59:27;;;;;;;8.85;4.10;;;16.70;99.90;;;;;;5017219;28;20073;-72
2023/06/28 07:01:53;;;;;;;11.18;4.70;;;16.70;99.90;;;;;;5033893;28;20073;-73
2023/06/28 07:04:21;;;;;;;12.18;4.97;;;16.80;99.90;;;;;;5033834;28;20379;-73
2023/06/28 07:06:47;;;;;;;10.32;4.70;;;16.80;99.90;;;;;;5017100;28;20041;-72
2023/06/28 07:09:17;;;;;;;11.02;5.00;;;16.80;99.90;;;;;;5033432;28;20517;-73
2023/06/28 07:11:44;;;;;;;9.95;5.05;;;16.80;99.90;;;;;;5033701;28;20029;-73
2023/06/28 07:14:09;;;;;;;13.20;5.63;;;16.70;99.90;;;;;;5033374;28;20052;-73
2023/06/28 07:16:35;;;;;;;12.05;5.15;;;16.80;99.90;;;;;;5033495;28;20037;-72
2023/06/28 07:19:02;;;;;;;9.40;5.25;;;16.80;99.90;;;;;;5033376;28;20679;-72
2023/06/28 07:21:28;;;;;;;7.50;4.22;;;16.80;99.90;;;;;;5032476;28;20100;-72
2023/06/28 07:23:54;;;;;;;7.03;4.32;;;16.80;99.90;;;;;;5033111;28;20055;-72
2023/06/28 07:26:20;;;;;;;10.77;5.53;;;16.90;99.90;;;;;;5033078;28;20041;-72
2023/06/28 07:28:46;;;;;;;12.85;5.13;;;17.00;99.90;;;;;;5033077;28;20036;-72
2023/06/28 07:31:11;;;;;;;9.02;4.80;;;17.00;99.90;;;;;;5033264;28;20136;-72
2023/06/28 07:33:37;;;;;;;11.60;5.30;;;16.90;99.90;;;;;;5032994;28;20037;-72
2023/06/28 07:36:03;;;;;;;13.23;5.43;;;16.90;99.90;;;;;;5033162;28;20116;-72
2023/06/28 07:38:29;;;;;;;11.45;4.63;;;16.90;99.90;;;;;;5032947;28;20069;-72
2023/06/28 07:40:54;;;;;;;9.77;4.85;;;16.90;99.90;;;;;;5033141;28;20131;-72
2023/06/28 07:43:20;;;;;;;9.15;4.75;;;17.00;99.90;;;;;;5032803;28;20033;-73
2023/06/28 07:45:46;;;;;;;10.88;5.40;;;17.00;99.90;;;;;;5032646;28;20172;-72
2023/06/28 07:48:12;;;;;;;10.93;5.90;;;17.00;99.90;;;;;;5033933;28;20045;-72
2023/06/28 07:50:37;;;;;;;13.23;5.50;;;17.00;99.90;;;;;;5032695;28;20049;-72
2023/06/28 07:53:04;;;;;;;12.35;5.70;;;17.00;99.90;;;;;;5032927;28;20040;-72
2023/06/28 07:55:30;;;;;;;11.00;5.43;;;17.00;99.90;;;;;;5032501;28;20041;-72
2023/06/28 07:57:59;;;;;;;9.35;4.57;;;17.00;99.90;;;;;;5032456;28;20045;-72
2023/06/28 08:00:25;;;;;;;9.32;5.30;;;17.00;99.90;;;;;;5032431;28;20402;-72
2023/06/28 08:02:51;;;;;;;10.45;5.60;;;17.00;99.90;;;;;;5032452;28;20037;-72
2023/06/28 08:05:16;;;;;;;10.60;5.25;;;17.10;99.90;;;;;;5032334;28;20119;-72
2023/06/28 08:07:42;;;;;;;10.23;5.25;;;17.00;99.90;;;;;;5032339;28;20076;-72
2023/06/28 08:10:08;;;;;;;10.77;5.82;;;17.00;99.90;;;;;;5032324;28;20037;-72
2023/06/28 08:12:34;;;;;;;12.45;5.78;;;17.00;99.90;;;;;;5015819;28;20034;-72
2023/06/28 08:14:59;;;;;;;11.27;5.43;;;17.00;99.90;;;;;;5032264;28;20044;-72
2023/06/28 08:17:25;;;;;;;12.50;6.05;;;17.10;99.90;;;;;;5032453;28;20099;-72
2023/06/28 08:19:50;;;;;;;12.48;5.85;;;17.10;99.90;;;;;;5032453;28;20041;-72
2023/06/28 08:22:16;;;;;;;11.95;6.25;;;17.20;99.90;;;;;;5032185;28;20037;-72
2023/06/28 08:24:42;;;;;;;14.55;7.00;;;17.20;99.90;;;;;;5032493;28;20175;-73
2023/06/28 08:27:07;;;;;;;9.60;6.18;;;17.20;99.90;;;;;;5032352;28;20504;-73
2023/06/28 08:29:33;;;;;;;12.48;6.30;;;17.30;99.90;;;;;;5032042;28;20532;-70
2023/06/28 08:31:59;;;;;;;12.75;6.28;;;17.30;99.90;;;;;;5032003;28;20113;-69
2023/06/28 08:34:24;;;;;;;11.98;6.22;;;17.20;99.90;;;;;;5032326;28;20045;-69
2023/06/28 08:36:50;;;;;;;11.18;6.22;;;17.30;99.90;;;;;;5031894;28;20454;-70
2023/06/28 08:39:16;;;;;;;9.45;6.15;;;17.30;99.90;;;;;;5032250;28;20044;-70
2023/06/28 08:41:43;;;;;;;11.80;6.30;;;17.30;99.90;;;;;;5031918;28;20498;-70
2023/06/28 08:44:12;;;;;;;10.30;6.55;;;17.40;99.90;;;;;;5031834;28;20414;-70
2023/06/28 08:46:42;;;;;;;13.40;6.78;;;17.50;99.90;;;;;;5031810;28;20037;-70
2023/06/28 08:49:08;;;;;;;10.43;6.75;;;17.50;99.90;;;;;;5031903;28;20049;-70
2023/06/28 08:51:33;;;;;;;15.35;7.25;;;17.40;99.90;;;;;;5031806;28;20041;-70
2023/06/28 08:53:59;;;;;;;17.40;8.02;;;17.50;99.90;;;;;;5031824;28;20045;-70
2023/06/28 08:56:27;;;;;;;11.57;7.15;;;17.50;99.90;;;;;;5031539;28;20120;-70
2023/06/28 08:58:54;;;;;;;14.65;7.90;;;17.60;99.90;;;;;;5015317;28;20049;-70
2023/06/28 09:01:23;;;;;;;13.90;7.85;;;17.70;99.90;;;;;;5015254;28;20045;-70
2023/06/28 09:03:49;;;;;;;12.02;7.72;;;17.70;99.90;;;;;;5031677;28;20085;-70
2023/06/28 09:06:15;;;;;;;12.93;8.43;;;17.70;99.90;;;;;;5033117;28;20076;-70
2023/06/28 09:08:43;;;;;;;13.23;8.95;;;17.70;99.90;;;;;;5031904;28;20045;-70
2023/06/28 09:11:08;;;;;;;12.38;8.55;;;17.70;99.90;;;;;;5031639;28;20069;-70
2023/06/28 09:13:34;;;;;;;16.73;9.48;;;17.60;99.90;;;;;;5031608;28;20065;-70
2023/06/28 09:16:00;;;;;;;15.77;9.95;;;17.60;99.90;;;;;;5031821;28;20044;-70
2023/06/28 09:18:26;;;;;;;15.68;9.85;;;17.50;99.90;;;;;;5031799;28;20041;-70
2023/06/28 09:20:54;;;;;;;15.32;9.50;;;17.60;99.90;;;;;;5031552;28;20095;-69
2023/06/28 09:23:27;;;;;;;17.73;10.23;;;17.70;99.90;;;;;;5031807;28;20501;-70
2023/06/28 09:25:54;;;;;;;19.63;10.68;;;17.70;99.90;;;;;;5014963;28;20049;-70
2023/06/28 09:28:35;;;;;;;16.95;10.93;;;17.70;99.90;;;;;;5031780;28;20037;-70
2023/06/28 09:31:01;;;;;;;17.05;10.60;;;17.70;99.90;;;;;;5031515;28;20068;-70
2023/06/28 09:33:27;;;;;;;18.48;11.20;;;17.80;99.90;;;;;;5031433;28;20034;-70
2023/06/28 09:35:54;;;;;;;18.40;11.30;;;17.80;99.90;;;;;;5032002;28;20102;-70
2023/06/28 09:38:21;;;;;;;17.52;10.55;;;17.70;99.90;;;;;;5032965;28;20038;-70
2023/06/28 09:40:53;;;;;;;20.67;11.68;;;17.80;99.90;;;;;;5031329;28;20052;-70
2023/06/28 09:43:19;;;;;;;;;;;17.80;99.90;;;;;;5032369;28;20419;-70
2023/06/28 09:45:44;;;;;;;18.10;11.70;;;17.70;99.90;;;;;;5034613;28;20020;-70
2023/06/28 09:48:10;;;;;;;21.27;11.73;;;17.80;99.90;;;;;;5035045;28;20564;-70
2023/06/28 09:50:37;;;;;;;20.33;11.18;;;17.70;99.90;;;;;;5034968;28;20033;-70
2023/06/28 09:53:08;;;;;;;19.45;11.10;;;17.70;99.90;;;;;;5034897;28;20037;-70
2023/06/28 09:55:36;;;;;;;18.35;11.27;;;17.70;99.90;;;;;;5034694;28;20052;-70
2023/06/28 09:58:02;;;;;;;19.92;12.02;;;17.70;99.90;;;;;;5034870;28;20410;-70
2023/06/28 10:00:30;;;;;;;19.50;11.35;;;17.70;99.90;;;;;;5035044;28;20494;-70
2023/06/28 10:02:58;;;;;;;15.18;11.10;;;17.60;99.90;;;;;;5034699;28;20453;-70
2023/06/28 10:05:25;;;;;;;17.13;11.68;;;17.70;99.90;;;;;;5035862;28;20049;-70
2023/06/28 10:07:51;;;;;;;18.02;11.65;;;17.70;99.90;;;;;;5034584;28;20049;-70
2023/06/28 10:10:18;;;;;;;15.68;11.38;;;17.70;99.90;;;;;;5034712;28;20041;-69
2023/06/28 10:12:45;;;;;;;17.50;10.95;;;17.70;99.90;;;;;;5034593;28;20065;-70
2023/06/28 10:15:15;;;;;;;18.05;10.45;;;17.60;99.90;;;;;;5034615;28;20037;-70
2023/06/28 10:17:42;;;;;;;17.08;12.18;;;17.70;99.90;;;;;;5034497;28;20045;-70
2023/06/28 10:20:08;;;;;;;19.95;12.40;;;17.70;99.90;;;;;;5034410;28;20077;-70
2023/06/28 10:22:35;;;;;;;18.90;11.55;;;17.70;99.90;;;;;;5034387;28;20091;-70
2023/06/28 10:25:02;;;;;;;14.48;10.82;;;17.80;99.90;;;;;;5034304;28;20049;-70
2023/06/28 10:27:28;;;;;;;14.30;10.70;;;17.90;99.90;;;;;;5034221;28;20076;-70
2023/06/28 10:29:56;;;;;;;13.95;10.52;;;17.90;99.90;;;;;;5034257;28;20042;-70
2023/06/28 10:32:23;;;;;;;13.30;10.80;;;17.90;99.90;;;;;;5034506;28;20041;-70
2023/06/28 10:34:49;;;;;;;16.20;11.05;;;18.00;99.90;;;;;;5035747;28;20045;-70
2023/06/28 10:37:21;;;;;;;14.13;11.45;;;18.00;99.90;;;;;;5017829;28;20037;-69
2023/06/28 10:39:46;;;;;;;16.50;10.32;;;18.10;99.90;;;;;;5034392;28;20167;-70
2023/06/28 10:42:12;;;;;;;13.55;10.75;;;18.20;99.90;;;;;;5035631;28;20464;-70
2023/06/28 10:44:54;;;;;;;13.52;10.13;;;18.20;99.90;;;;;;5033927;28;20562;-70
2023/06/28 10:47:20;;;;;;;16.80;10.88;;;18.20;99.90;;;;;;5035410;28;20045;-70
2023/06/28 10:50:05;;;;;;;13.18;9.98;;;18.30;99.90;;;;;;5033928;28;20049;-70
2023/06/28 10:52:31;;;;;;;14.57;10.15;;;18.30;99.90;;;;;;5034129;28;20045;-70
2023/06/28 10:54:56;;;;;;;14.52;10.52;;;18.40;99.90;;;;;;5034670;28;20521;-70
2023/06/28 10:57:39;;;;;;;16.38;11.23;;;18.40;99.90;;;;;;5032836;28;20052;-70
2023/06/28 11:00:29;;;;;;;15.32;10.25;;;18.40;99.90;;;;;;5033792;28;20056;-70
2023/06/28 11:03:05;;;;;;;16.90;10.02;;;18.30;99.90;;;;;;5033563;28;20057;-70
2023/06/28 11:05:56;;;;;;;13.02;9.75;;;18.40;99.90;;;;;;5033617;28;20049;-69
2023/06/28 11:08:35;;;;;;;11.32;9.43;;;18.40;99.90;;;;;;5033587;28;20048;-70
2023/06/28 11:11:01;;;;;;;12.50;9.45;;;18.40;99.90;;;;;;5033818;28;20068;-70
2023/06/28 11:13:39;;;;;;;12.25;9.73;;;18.40;99.90;;;;;;5033712;28;20037;-70
2023/06/28 11:16:13;;;;;;;14.05;9.50;;;18.40;99.90;;;;;;5033361;28;20096;-69
2023/06/28 11:18:39;;;;;;;15.40;9.73;;;18.40;99.90;;;;;;5033620;28;20410;-69
2023/06/28 11:21:12;;;;;;;11.40;9.60;;;18.40;99.90;;;;;;5033566;28;20494;-74
2023/06/28 11:23:40;;;;;;;12.50;10.07;;;18.50;99.90;;;;;;5016744;28;20041;-74
2023/06/28 11:26:08;;;;;;;12.68;10.05;;;18.50;99.90;;;;;;5016956;28;20041;-74
2023/06/28 11:28:35;;;;;;;11.40;9.68;;;18.50;99.90;;;;;;5033159;28;20041;-72
2023/06/28 11:31:14;;;;;;;10.40;9.23;;;18.60;99.90;;;;;;5033062;28;20053;-73
2023/06/28 11:33:41;;;;;;;12.52;9.27;;;18.70;99.90;;;;;;5033091;28;20114;-73
2023/06/28 11:36:08;;;;;;;12.50;10.27;;;18.70;99.90;;;;;;5032935;28;20048;-73
2023/06/28 11:38:35;;;;;;;10.93;9.55;;;18.70;99.90;;;;;;5033185;28;20048;-73
2023/06/28 11:41:00;;;;;;;14.68;9.93;;;18.70;99.90;;;;;;5032818;28;20049;-73
2023/06/28 11:43:26;;;;;;;12.55;10.60;;;18.80;99.90;;;;;;5033154;28;20048;-73
2023/06/28 11:45:52;;;;;;;12.95;10.45;;;18.90;99.90;;;;;;5032692;28;20410;-73
2023/06/28 11:48:20;;;;;;;11.73;10.35;;;18.80;99.90;;;;;;5032801;28;20128;-72
2023/06/28 11:50:55;;;;;;;11.60;10.50;;;18.80;99.90;;;;;;5032707;28;20414;-72
2023/06/28 11:53:20;;;;;;;12.52;11.00;;;18.90;99.90;;;;;;5016538;28;20376;-72
2023/06/28 11:55:46;;;;;;;14.23;12.18;;;18.80;99.90;;;;;;5032494;28;20552;-72
2023/06/28 11:58:12;;;;;;;14.48;12.45;;;18.80;99.90;;;;;;5032664;28;20128;-73
2023/06/28 12:00:38;;;;;;;13.38;11.98;;;18.70;99.90;;;;;;5016324;28;20389;-73
2023/06/28 12:03:04;;;;;;;13.27;11.88;;;18.80;99.90;;;;;;5032561;28;20041;-73
2023/06/28 12:05:30;;;;;;;16.33;13.68;;;18.80;99.90;;;;;;5032504;28;20107;-73
2023/06/28 12:07:58;;;;;;;14.93;13.50;;;18.90;99.90;;;;;;5032059;28;20516;-73
2023/06/28 12:10:31;;;;;;;15.13;13.52;;;18.90;99.90;;;;;;5032418;28;20106;-73
2023/06/28 12:12:57;;;;;;;16.50;13.95;;;18.90;99.90;;;;;;5032385;28;20410;-73
2023/06/28 12:15:23;;;;;;;14.75;13.30;;;18.90;99.90;;;;;;5032593;28;20044;-73
2023/06/28 12:17:50;;;;;;;16.52;14.73;;;18.90;99.90;;;;;;5032289;28;20048;-73
2023/06/28 12:20:16;;;;;;;18.67;15.63;;;18.80;99.90;;;;;;5032498;28;20121;-73
2023/06/28 12:22:43;;;;;;;19.42;15.10;;;18.90;99.90;;;;;;5032870;28;20124;-73
2023/06/28 12:25:09;;;;;;;19.00;16.00;;;18.90;99.90;;;;;;5032196;28;20049;-74
2023/06/28 12:27:38;;;;;;;20.17;16.70;;;19.00;99.90;;;;;;5032043;28;20049;-74
2023/06/28 12:30:15;;;;;;;18.75;16.13;;;19.00;99.90;;;;;;5032120;28;20493;-74
2023/06/28 12:32:46;;;;;;;19.67;15.75;;;19.00;99.90;;;;;;5015622;28;20041;-74
2023/06/28 12:35:23;;;;;;;17.83;15.20;;;18.90;99.90;;;;;;5032028;28;20052;-74